Terminal Aerodrome Forecast
Issued by NWS Twin Cities, MN

Home | Current Version | Previous Version | Text Only | Print | Product List | Glossary Off
Versions: 1 2 3 4 5 6 7 8 9 10 11 12 13 14 15 16 17 18 19 20 21 22 23 24 25 26 27 28

000
FTUS43 KMPX 212000 AAB
TAFMSP
TAF AMD
KMSP 212036Z 2121/2224 14010G16KT P6SM BKN035
     FM220000 16011KT P6SM SCT040 BKN200
     FM220600 15008KT 6SM HZ BKN040 BKN100 PROB30 2206/2210 4SM TSRA
      BKN035CB
     FM221400 28013G19KT P6SM SCT030
     FM222000 31016G24KT P6SM SCT040 SCT250=

USA.gov is the U.S. government's official web portal to all federal, state and local government web resources and services.